Kezdőlap
METAR-TAF:

METAR-TAF

Repülőterek :

Trenton-Mercer Airport

Trenton, New Jersey, Amerikai Egyesült Államok

földrajzi szélesség: 40-16-35N, földrajzi hosszúság: 074-48-59W, magasság: 64 m

Jelenlegi meteorológiai megfigyelések

A jelentés 1 órával és 6 perccel ezelõtt készült, 17:53 UTC
Délnyugati szél 11 kt
Hőmérséklet 7°C
Páratartalom 21%
Légköri nyomás 1024 hPa
Látótávolság: 16.1 km
Derült ég

METAR: KTTN 221753Z 23011KT 10SM CLR 07/M14 A3024 RMK AO2 SLP237 T00721139 10072 21039 58027

Idő: 13:59 (18:59 UTC)

Előrejelzés

A jelentés 1 órával és 39 perccel ezelõtt készült, 17:20 UTC
Az előrejelzés 22-én 18 óra UTC és 23-én 18 óra UTC között érvényes
Nyugati szél 10 kt széllökések: 17 kt
Látótávolság: 10 km
Derült ég
23-én 0000 órától UTC szerint
Nyugat-délnyugati szél 5 kt
Látótávolság: 10 km
Derült ég

TAF: KTTN 221720Z 2218/2318 26010G17KT P6SM SKC FM230000 24005KT P6SM SKC

Meteorológiai megfigyelések és előrejelzések több, mint 4000 repülőtéren (METAR és TAF jelentéseket).

A térképen piros és sárga pontok jelzik az elérhető meteorológiai állomásokat.

Mozgassa az egeret a pont fölött, hogy megjelenjen az állomás neve.

Azután kattintson az időjárási megfigyelések és előrejelzések megtekintéséhez.

A térkép megváltoztatása: kattintson a fekete keresztel jelölt zöld gombra ráközelítéshez, a vonallal jelölt zöld gombra távolításhoz, vagy a zöld nyilakra a szomszédos térképek eléréséhez.


METAR-TAF: